sensor_id;sensor_type;location;lat;lon;timestamp;temperature;humidity
48604;DHT22;32708;51.212;6.788;2023-04-24T00:00:31;12.00;65.50
48604;DHT22;32708;51.212;6.788;2023-04-24T00:02:58;11.90;68.20
48604;DHT22;32708;51.212;6.788;2023-04-24T00:05:24;11.90;68.50
48604;DHT22;32708;51.212;6.788;2023-04-24T00:07:51;11.80;68.60
48604;DHT22;32708;51.212;6.788;2023-04-24T00:10:20;11.80;70.70
48604;DHT22;32708;51.212;6.788;2023-04-24T00:12:46;11.80;72.50
48604;DHT22;32708;51.212;6.788;2023-04-24T00:15:13;11.80;72.30
48604;DHT22;32708;51.212;6.788;2023-04-24T00:17:39;11.70;70.60
48604;DHT22;32708;51.212;6.788;2023-04-24T00:20:06;11.80;73.20
48604;DHT22;32708;51.212;6.788;2023-04-24T00:22:33;11.80;70.90
48604;DHT22;32708;51.212;6.788;2023-04-24T00:24:59;11.60;71.40
48604;DHT22;32708;51.212;6.788;2023-04-24T00:27:26;11.60;70.50
48604;DHT22;32708;51.212;6.788;2023-04-24T00:29:52;11.60;63.10
48604;DHT22;32708;51.212;6.788;2023-04-24T00:32:18;11.60;63.50
48604;DHT22;32708;51.212;6.788;2023-04-24T00:34:45;11.70;60.20
48604;DHT22;32708;51.212;6.788;2023-04-24T00:37:11;11.80;65.20
48604;DHT22;32708;51.212;6.788;2023-04-24T00:39:37;11.60;69.40
48604;DHT22;32708;51.212;6.788;2023-04-24T00:42:03;11.60;65.70
48604;DHT22;32708;51.212;6.788;2023-04-24T00:44:33;11.60;59.10
48604;DHT22;32708;51.212;6.788;2023-04-24T00:47:01;11.60;52.10
48604;DHT22;32708;51.212;6.788;2023-04-24T00:49:27;11.70;49.00
48604;DHT22;32708;51.212;6.788;2023-04-24T00:51:56;11.70;31.70
48604;DHT22;32708;51.212;6.788;2023-04-24T00:54:25;11.80;32.50
48604;DHT22;32708;51.212;6.788;2023-04-24T00:56:51;11.70;24.80
48604;DHT22;32708;51.212;6.788;2023-04-24T00:59:18;11.80;20.60
48604;DHT22;32708;51.212;6.788;2023-04-24T01:01:45;11.60;26.00
48604;DHT22;32708;51.212;6.788;2023-04-24T01:04:12;11.70;24.60
48604;DHT22;32708;51.212;6.788;2023-04-24T01:06:40;11.70;22.70
48604;DHT22;32708;51.212;6.788;2023-04-24T01:09:10;12.00;28.60
48604;DHT22;32708;51.212;6.788;2023-04-24T01:11:41;11.50;37.70
48604;DHT22;32708;51.212;6.788;2023-04-24T01:14:09;11.50;36.70
48604;DHT22;32708;51.212;6.788;2023-04-24T01:16:35;11.90;34.40
48604;DHT22;32708;51.212;6.788;2023-04-24T01:19:05;11.30;47.00
48604;DHT22;32708;51.212;6.788;2023-04-24T01:21:36;11.30;45.10
48604;DHT22;32708;51.212;6.788;2023-04-24T01:24:05;11.30;45.30
48604;DHT22;32708;51.212;6.788;2023-04-24T01:26:32;11.20;58.00
48604;DHT22;32708;51.212;6.788;2023-04-24T01:28:59;11.00;66.20
48604;DHT22;32708;51.212;6.788;2023-04-24T01:31:26;10.90;71.70
48604;DHT22;32708;51.212;6.788;2023-04-24T01:33:54;10.80;75.50
48604;DHT22;32708;51.212;6.788;2023-04-24T01:36:23;10.70;81.60
48604;DHT22;32708;51.212;6.788;2023-04-24T01:38:51;11.00;84.30
48604;DHT22;32708;51.212;6.788;2023-04-24T01:41:18;10.50;88.90
48604;DHT22;32708;51.212;6.788;2023-04-24T01:43:46;10.50;91.40
48604;DHT22;32708;51.212;6.788;2023-04-24T01:46:12;10.40;92.60
48604;DHT22;32708;51.212;6.788;2023-04-24T01:48:40;10.50;91.00
48604;DHT22;32708;51.212;6.788;2023-04-24T01:51:07;10.90;91.50
48604;DHT22;32708;51.212;6.788;2023-04-24T01:53:34;10.80;91.00
48604;DHT22;32708;51.212;6.788;2023-04-24T01:56:01;10.50;92.60
48604;DHT22;32708;51.212;6.788;2023-04-24T01:58:29;10.50;91.50
48604;DHT22;32708;51.212;6.788;2023-04-24T02:00:59;10.50;93.10
48604;DHT22;32708;51.212;6.788;2023-04-24T02:03:29;10.60;93.40
48604;DHT22;32708;51.212;6.788;2023-04-24T02:05:57;10.50;93.60
48604;DHT22;32708;51.212;6.788;2023-04-24T02:08:24;10.60;93.40
48604;DHT22;32708;51.212;6.788;2023-04-24T02:10:50;10.60;93.00
48604;DHT22;32708;51.212;6.788;2023-04-24T02:13:16;10.50;93.70
48604;DHT22;32708;51.212;6.788;2023-04-24T02:15:42;10.60;92.50
48604;DHT22;32708;51.212;6.788;2023-04-24T02:18:09;10.60;91.50
48604;DHT22;32708;51.212;6.788;2023-04-24T02:20:39;10.90;91.40
48604;DHT22;32708;51.212;6.788;2023-04-24T02:23:05;10.50;90.20
48604;DHT22;32708;51.212;6.788;2023-04-24T02:25:33;10.70;88.10
48604;DHT22;32708;51.212;6.788;2023-04-24T02:27:59;10.80;88.50
48604;DHT22;32708;51.212;6.788;2023-04-24T02:30:26;10.80;89.80
48604;DHT22;32708;51.212;6.788;2023-04-24T02:32:53;10.80;90.10
48604;DHT22;32708;51.212;6.788;2023-04-24T02:35:19;10.80;87.70
48604;DHT22;32708;51.212;6.788;2023-04-24T02:37:45;10.70;92.00
48604;DHT22;32708;51.212;6.788;2023-04-24T02:40:12;10.60;91.10
48604;DHT22;32708;51.212;6.788;2023-04-24T02:42:39;10.70;91.90
48604;DHT22;32708;51.212;6.788;2023-04-24T02:45:06;10.80;88.20
48604;DHT22;32708;51.212;6.788;2023-04-24T02:47:32;10.90;89.70
48604;DHT22;32708;51.212;6.788;2023-04-24T02:50:01;10.90;90.00
48604;DHT22;32708;51.212;6.788;2023-04-24T02:52:28;10.80;90.40
48604;DHT22;32708;51.212;6.788;2023-04-24T02:54:55;10.80;89.80
48604;DHT22;32708;51.212;6.788;2023-04-24T02:57:21;10.90;90.50
48604;DHT22;32708;51.212;6.788;2023-04-24T02:59:47;10.80;91.60
48604;DHT22;32708;51.212;6.788;2023-04-24T03:02:13;10.80;90.60
48604;DHT22;32708;51.212;6.788;2023-04-24T03:04:42;10.80;92.00
48604;DHT22;32708;51.212;6.788;2023-04-24T03:07:08;10.90;91.10
48604;DHT22;32708;51.212;6.788;2023-04-24T03:09:37;11.00;90.60
48604;DHT22;32708;51.212;6.788;2023-04-24T03:12:03;10.90;90.60
48604;DHT22;32708;51.212;6.788;2023-04-24T03:14:30;10.90;90.40
48604;DHT22;32708;51.212;6.788;2023-04-24T03:16:57;10.90;89.00
48604;DHT22;32708;51.212;6.788;2023-04-24T03:19:23;10.90;86.80
48604;DHT22;32708;51.212;6.788;2023-04-24T03:21:59;11.00;82.70
48604;DHT22;32708;51.212;6.788;2023-04-24T03:24:29;11.00;85.30
48604;DHT22;32708;51.212;6.788;2023-04-24T03:26:56;11.00;85.90
48604;DHT22;32708;51.212;6.788;2023-04-24T03:29:43;10.80;86.30
48604;DHT22;32708;51.212;6.788;2023-04-24T03:32:10;10.90;88.80
48604;DHT22;32708;51.212;6.788;2023-04-24T03:34:37;10.90;86.60
48604;DHT22;32708;51.212;6.788;2023-04-24T03:37:06;10.90;89.60
48604;DHT22;32708;51.212;6.788;2023-04-24T03:39:34;10.80;88.30
48604;DHT22;32708;51.212;6.788;2023-04-24T03:42:02;10.70;89.00
48604;DHT22;32708;51.212;6.788;2023-04-24T03:44:40;10.70;90.80
48604;DHT22;32708;51.212;6.788;2023-04-24T03:47:06;10.80;83.50
48604;DHT22;32708;51.212;6.788;2023-04-24T03:49:32;10.80;80.20
48604;DHT22;32708;51.212;6.788;2023-04-24T03:51:59;10.90;82.50
48604;DHT22;32708;51.212;6.788;2023-04-24T03:54:27;10.90;80.10
48604;DHT22;32708;51.212;6.788;2023-04-24T03:56:53;10.90;82.10
48604;DHT22;32708;51.212;6.788;2023-04-24T03:59:20;11.20;78.20
48604;DHT22;32708;51.212;6.788;2023-04-24T04:01:56;10.80;80.20
48604;DHT22;32708;51.212;6.788;2023-04-24T04:04:22;10.80;83.80
48604;DHT22;32708;51.212;6.788;2023-04-24T04:06:50;10.80;80.10
48604;DHT22;32708;51.212;6.788;2023-04-24T04:09:16;10.80;78.70
48604;DHT22;32708;51.212;6.788;2023-04-24T04:11:43;10.70;85.10
48604;DHT22;32708;51.212;6.788;2023-04-24T04:14:11;10.70;85.20
48604;DHT22;32708;51.212;6.788;2023-04-24T04:16:40;10.70;85.30
48604;DHT22;32708;51.212;6.788;2023-04-24T04:19:07;10.80;85.20
48604;DHT22;32708;51.212;6.788;2023-04-24T04:21:34;11.10;85.90
48604;DHT22;32708;51.212;6.788;2023-04-24T04:24:18;10.80;89.10
48604;DHT22;32708;51.212;6.788;2023-04-24T04:26:46;10.70;87.70
48604;DHT22;32708;51.212;6.788;2023-04-24T04:29:19;10.70;87.80
48604;DHT22;32708;51.212;6.788;2023-04-24T04:31:48;10.80;88.40
48604;DHT22;32708;51.212;6.788;2023-04-24T04:34:14;10.70;90.40
48604;DHT22;32708;51.212;6.788;2023-04-24T04:36:41;10.70;91.00
48604;DHT22;32708;51.212;6.788;2023-04-24T04:39:38;10.70;87.40
48604;DHT22;32708;51.212;6.788;2023-04-24T04:42:08;10.70;90.20
48604;DHT22;32708;51.212;6.788;2023-04-24T04:44:40;10.60;91.50
48604;DHT22;32708;51.212;6.788;2023-04-24T04:47:08;10.70;92.30
48604;DHT22;32708;51.212;6.788;2023-04-24T04:49:38;10.50;92.30
48604;DHT22;32708;51.212;6.788;2023-04-24T04:52:09;10.70;92.00
48604;DHT22;32708;51.212;6.788;2023-04-24T04:54:36;10.70;96.90
48604;DHT22;32708;51.212;6.788;2023-04-24T04:57:02;10.60;99.90
48604;DHT22;32708;51.212;6.788;2023-04-24T04:59:28;10.40;99.90
48604;DHT22;32708;51.212;6.788;2023-04-24T05:02:01;10.30;99.90
48604;DHT22;32708;51.212;6.788;2023-04-24T05:04:27;10.30;99.90
48604;DHT22;32708;51.212;6.788;2023-04-24T05:06:53;10.60;99.90
48604;DHT22;32708;51.212;6.788;2023-04-24T05:09:21;10.40;99.90
48604;DHT22;32708;51.212;6.788;2023-04-24T05:11:52;10.30;99.90
48604;DHT22;32708;51.212;6.788;2023-04-24T05:14:19;10.50;99.90
48604;DHT22;32708;51.212;6.788;2023-04-24T05:16:45;10.60;99.90
48604;DHT22;32708;51.212;6.788;2023-04-24T05:19:13;10.40;99.90
48604;DHT22;32708;51.212;6.788;2023-04-24T05:21:41;10.40;99.90
48604;DHT22;32708;51.212;6.788;2023-04-24T05:24:08;10.40;99.90
48604;DHT22;32708;51.212;6.788;2023-04-24T05:26:45;10.50;99.90
48604;DHT22;32708;51.212;6.788;2023-04-24T05:29:14;10.50;99.90
48604;DHT22;32708;51.212;6.788;2023-04-24T05:31:42;10.40;99.90
48604;DHT22;32708;51.212;6.788;2023-04-24T05:34:09;10.20;99.90
48604;DHT22;32708;51.212;6.788;2023-04-24T05:36:39;10.10;99.90
48604;DHT22;32708;51.212;6.788;2023-04-24T05:39:06;10.40;99.90
48604;DHT22;32708;51.212;6.788;2023-04-24T05:41:32;10.20;99.90
48604;DHT22;32708;51.212;6.788;2023-04-24T05:43:58;10.30;99.90
48604;DHT22;32708;51.212;6.788;2023-04-24T05:46:24;10.20;99.90
48604;DHT22;32708;51.212;6.788;2023-04-24T05:48:51;10.00;99.90
48604;DHT22;32708;51.212;6.788;2023-04-24T05:51:17;9.90;99.90
48604;DHT22;32708;51.212;6.788;2023-04-24T05:53:43;10.00;99.90
48604;DHT22;32708;51.212;6.788;2023-04-24T05:56:11;10.00;99.90
48604;DHT22;32708;51.212;6.788;2023-04-24T05:58:38;10.00;99.90
48604;DHT22;32708;51.212;6.788;2023-04-24T06:01:05;10.10;99.90
48604;DHT22;32708;51.212;6.788;2023-04-24T06:03:32;10.10;99.90
48604;DHT22;32708;51.212;6.788;2023-04-24T06:05:58;9.90;99.90
48604;DHT22;32708;51.212;6.788;2023-04-24T06:08:25;9.90;99.90
48604;DHT22;32708;51.212;6.788;2023-04-24T06:10:52;9.80;99.90
48604;DHT22;32708;51.212;6.788;2023-04-24T06:13:20;9.70;99.90
48604;DHT22;32708;51.212;6.788;2023-04-24T06:16:09;9.80;99.90
48604;DHT22;32708;51.212;6.788;2023-04-24T06:18:39;9.70;99.90
48604;DHT22;32708;51.212;6.788;2023-04-24T06:21:05;9.70;99.90
48604;DHT22;32708;51.212;6.788;2023-04-24T06:23:32;9.80;99.90
48604;DHT22;32708;51.212;6.788;2023-04-24T06:25:59;9.80;99.90
48604;DHT22;32708;51.212;6.788;2023-04-24T06:28:25;9.90;99.90
48604;DHT22;32708;51.212;6.788;2023-04-24T06:30:51;9.70;99.90
48604;DHT22;32708;51.212;6.788;2023-04-24T06:33:19;9.80;99.90
48604;DHT22;32708;51.212;6.788;2023-04-24T06:35:45;10.30;99.90
48604;DHT22;32708;51.212;6.788;2023-04-24T06:38:11;9.90;99.90
48604;DHT22;32708;51.212;6.788;2023-04-24T06:40:37;9.70;99.90
48604;DHT22;32708;51.212;6.788;2023-04-24T06:43:04;9.60;99.90
48604;DHT22;32708;51.212;6.788;2023-04-24T06:45:30;9.90;99.90
48604;DHT22;32708;51.212;6.788;2023-04-24T06:47:56;9.90;99.90
48604;DHT22;32708;51.212;6.788;2023-04-24T06:50:23;10.10;99.90
48604;DHT22;32708;51.212;6.788;2023-04-24T06:52:50;9.80;99.90
48604;DHT22;32708;51.212;6.788;2023-04-24T06:55:16;9.80;99.90
48604;DHT22;32708;51.212;6.788;2023-04-24T06:57:42;10.20;99.90
48604;DHT22;32708;51.212;6.788;2023-04-24T07:00:10;9.60;99.90
48604;DHT22;32708;51.212;6.788;2023-04-24T07:02:37;9.50;99.90
48604;DHT22;32708;51.212;6.788;2023-04-24T07:05:04;9.50;99.90
48604;DHT22;32708;51.212;6.788;2023-04-24T07:07:30;9.40;99.90
48604;DHT22;32708;51.212;6.788;2023-04-24T07:09:57;9.50;99.90
48604;DHT22;32708;51.212;6.788;2023-04-24T07:12:23;9.50;99.90
48604;DHT22;32708;51.212;6.788;2023-04-24T07:14:50;9.60;99.90
48604;DHT22;32708;51.212;6.788;2023-04-24T07:17:16;9.50;99.90
48604;DHT22;32708;51.212;6.788;2023-04-24T07:19:42;9.60;99.90
48604;DHT22;32708;51.212;6.788;2023-04-24T07:22:08;9.60;99.90
48604;DHT22;32708;51.212;6.788;2023-04-24T07:24:37;9.90;99.90
48604;DHT22;32708;51.212;6.788;2023-04-24T07:27:04;9.50;99.90
48604;DHT22;32708;51.212;6.788;2023-04-24T07:29:30;9.50;99.90
48604;DHT22;32708;51.212;6.788;2023-04-24T07:31:56;9.40;99.90
48604;DHT22;32708;51.212;6.788;2023-04-24T07:34:22;9.50;99.90
48604;DHT22;32708;51.212;6.788;2023-04-24T07:36:48;9.40;99.90
48604;DHT22;32708;51.212;6.788;2023-04-24T07:39:15;9.30;99.90
48604;DHT22;32708;51.212;6.788;2023-04-24T07:41:41;9.20;99.90
48604;DHT22;32708;51.212;6.788;2023-04-24T07:44:08;9.00;99.90
48604;DHT22;32708;51.212;6.788;2023-04-24T07:46:34;8.80;99.90
48604;DHT22;32708;51.212;6.788;2023-04-24T07:49:00;8.60;99.90
48604;DHT22;32708;51.212;6.788;2023-04-24T07:51:27;8.40;99.90
48604;DHT22;32708;51.212;6.788;2023-04-24T07:53:54;8.20;99.90
48604;DHT22;32708;51.212;6.788;2023-04-24T07:56:22;8.20;99.90
48604;DHT22;32708;51.212;6.788;2023-04-24T07:58:48;7.90;99.90
48604;DHT22;32708;51.212;6.788;2023-04-24T08:01:14;8.10;99.90
48604;DHT22;32708;51.212;6.788;2023-04-24T08:03:41;8.10;99.90
48604;DHT22;32708;51.212;6.788;2023-04-24T08:06:07;8.00;99.90
48604;DHT22;32708;51.212;6.788;2023-04-24T08:08:33;8.60;99.90
48604;DHT22;32708;51.212;6.788;2023-04-24T08:10:59;8.10;99.90
48604;DHT22;32708;51.212;6.788;2023-04-24T08:13:25;8.20;99.90
48604;DHT22;32708;51.212;6.788;2023-04-24T08:15:52;8.30;99.90
48604;DHT22;32708;51.212;6.788;2023-04-24T08:18:18;8.50;99.90
48604;DHT22;32708;51.212;6.788;2023-04-24T08:20:44;8.60;99.90
48604;DHT22;32708;51.212;6.788;2023-04-24T08:23:11;8.50;99.90
48604;DHT22;32708;51.212;6.788;2023-04-24T08:25:37;8.50;99.90
48604;DHT22;32708;51.212;6.788;2023-04-24T08:28:05;8.80;99.90
48604;DHT22;32708;51.212;6.788;2023-04-24T08:30:32;8.50;99.90
48604;DHT22;32708;51.212;6.788;2023-04-24T08:32:58;8.30;99.90
48604;DHT22;32708;51.212;6.788;2023-04-24T08:35:24;8.30;99.90
48604;DHT22;32708;51.212;6.788;2023-04-24T08:37:52;8.30;99.90
48604;DHT22;32708;51.212;6.788;2023-04-24T08:40:27;8.40;99.90
48604;DHT22;32708;51.212;6.788;2023-04-24T08:42:57;8.40;99.90
48604;DHT22;32708;51.212;6.788;2023-04-24T08:45:25;9.10;99.90
48604;DHT22;32708;51.212;6.788;2023-04-24T08:47:53;8.70;99.90
48604;DHT22;32708;51.212;6.788;2023-04-24T08:50:21;8.60;99.90
48604;DHT22;32708;51.212;6.788;2023-04-24T08:52:50;8.60;99.90
48604;DHT22;32708;51.212;6.788;2023-04-24T08:55:20;8.60;99.90
48604;DHT22;32708;51.212;6.788;2023-04-24T08:57:52;8.70;99.90
48604;DHT22;32708;51.212;6.788;2023-04-24T09:00:20;8.70;99.90
48604;DHT22;32708;51.212;6.788;2023-04-24T09:02:49;8.60;99.90
48604;DHT22;32708;51.212;6.788;2023-04-24T09:05:22;8.60;99.90
48604;DHT22;32708;51.212;6.788;2023-04-24T09:07:54;8.70;99.90
48604;DHT22;32708;51.212;6.788;2023-04-24T09:10:25;8.70;99.90
48604;DHT22;32708;51.212;6.788;2023-04-24T09:12:52;8.80;99.90
48604;DHT22;32708;51.212;6.788;2023-04-24T09:15:20;8.90;99.90
48604;DHT22;32708;51.212;6.788;2023-04-24T09:17:46;8.90;99.90
48604;DHT22;32708;51.212;6.788;2023-04-24T09:20:13;8.90;99.90
48604;DHT22;32708;51.212;6.788;2023-04-24T09:22:39;8.90;99.90
48604;DHT22;32708;51.212;6.788;2023-04-24T09:25:08;9.00;99.90
48604;DHT22;32708;51.212;6.788;2023-04-24T09:27:41;9.00;99.90
48604;DHT22;32708;51.212;6.788;2023-04-24T09:30:10;8.90;99.90
48604;DHT22;32708;51.212;6.788;2023-04-24T09:32:36;8.90;99.90
48604;DHT22;32708;51.212;6.788;2023-04-24T09:35:13;8.90;99.90
48604;DHT22;32708;51.212;6.788;2023-04-24T09:37:47;8.80;99.90
48604;DHT22;32708;51.212;6.788;2023-04-24T09:40:19;8.90;99.90
48604;DHT22;32708;51.212;6.788;2023-04-24T09:42:52;8.90;99.90
48604;DHT22;32708;51.212;6.788;2023-04-24T09:45:20;8.90;99.90
48604;DHT22;32708;51.212;6.788;2023-04-24T09:47:51;9.00;99.90
48604;DHT22;32708;51.212;6.788;2023-04-24T09:50:21;9.20;99.90
48604;DHT22;32708;51.212;6.788;2023-04-24T09:52:59;9.20;99.90
48604;DHT22;32708;51.212;6.788;2023-04-24T09:55:27;9.30;99.90
48604;DHT22;32708;51.212;6.788;2023-04-24T09:57:59;9.30;99.90
48604;DHT22;32708;51.212;6.788;2023-04-24T10:00:32;9.30;99.90
48604;DHT22;32708;51.212;6.788;2023-04-24T10:02:59;9.30;99.90
48604;DHT22;32708;51.212;6.788;2023-04-24T10:05:36;9.30;99.90
48604;DHT22;32708;51.212;6.788;2023-04-24T10:08:09;9.30;99.90
48604;DHT22;32708;51.212;6.788;2023-04-24T10:10:42;9.40;99.90
48604;DHT22;32708;51.212;6.788;2023-04-24T10:13:14;9.60;99.90
48604;DHT22;32708;51.212;6.788;2023-04-24T10:15:42;9.70;99.90
48604;DHT22;32708;51.212;6.788;2023-04-24T10:18:09;9.70;99.90
48604;DHT22;32708;51.212;6.788;2023-04-24T10:20:39;9.90;99.90
48604;DHT22;32708;51.212;6.788;2023-04-24T10:23:06;9.60;99.90
48604;DHT22;32708;51.212;6.788;2023-04-24T10:25:35;9.60;99.90
48604;DHT22;32708;51.212;6.788;2023-04-24T10:28:03;9.70;99.90
48604;DHT22;32708;51.212;6.788;2023-04-24T10:30:34;9.90;99.90
48604;DHT22;32708;51.212;6.788;2023-04-24T10:33:02;10.00;99.90
48604;DHT22;32708;51.212;6.788;2023-04-24T10:35:37;10.00;99.90
48604;DHT22;32708;51.212;6.788;2023-04-24T10:38:12;10.20;99.90
48604;DHT22;32708;51.212;6.788;2023-04-24T10:40:42;10.00;99.90
48604;DHT22;32708;51.212;6.788;2023-04-24T10:43:09;10.00;99.90
48604;DHT22;32708;51.212;6.788;2023-04-24T10:45:38;10.00;99.90
48604;DHT22;32708;51.212;6.788;2023-04-24T10:48:07;10.00;99.90
48604;DHT22;32708;51.212;6.788;2023-04-24T10:53:24;9.90;99.90
48604;DHT22;32708;51.212;6.788;2023-04-24T10:56:03;9.80;99.90
48604;DHT22;32708;51.212;6.788;2023-04-24T11:01:07;10.00;99.90
48604;DHT22;32708;51.212;6.788;2023-04-24T11:03:35;10.00;99.90
48604;DHT22;32708;51.212;6.788;2023-04-24T11:06:05;10.30;99.90
48604;DHT22;32708;51.212;6.788;2023-04-24T11:08:43;10.60;99.90
48604;DHT22;32708;51.212;6.788;2023-04-24T11:11:17;10.80;99.90
48604;DHT22;32708;51.212;6.788;2023-04-24T11:21:42;10.30;99.90
48604;DHT22;32708;51.212;6.788;2023-04-24T11:27:13;10.40;99.90
48604;DHT22;32708;51.212;6.788;2023-04-24T11:32:40;10.60;99.90
48604;DHT22;32708;51.212;6.788;2023-04-24T11:35:23;10.60;99.90
48604;DHT22;32708;51.212;6.788;2023-04-24T11:37:54;10.70;99.90
48604;DHT22;32708;51.212;6.788;2023-04-24T11:40:22;10.70;99.90
48604;DHT22;32708;51.212;6.788;2023-04-24T11:42:51;11.00;99.90
48604;DHT22;32708;51.212;6.788;2023-04-24T11:45:25;11.00;99.90
48604;DHT22;32708;51.212;6.788;2023-04-24T11:47:55;11.20;99.90
48604;DHT22;32708;51.212;6.788;2023-04-24T11:50:24;11.40;99.90
48604;DHT22;32708;51.212;6.788;2023-04-24T11:52:53;11.30;99.90
48604;DHT22;32708;51.212;6.788;2023-04-24T11:57:47;11.20;99.90
48604;DHT22;32708;51.212;6.788;2023-04-24T12:00:32;11.00;99.90
48604;DHT22;32708;51.212;6.788;2023-04-24T12:03:09;11.00;99.90
48604;DHT22;32708;51.212;6.788;2023-04-24T12:05:38;10.90;99.90
48604;DHT22;32708;51.212;6.788;2023-04-24T12:08:05;10.90;99.90
48604;DHT22;32708;51.212;6.788;2023-04-24T12:10:33;11.00;99.90
48604;DHT22;32708;51.212;6.788;2023-04-24T12:13:02;11.10;99.90
48604;DHT22;32708;51.212;6.788;2023-04-24T12:15:28;11.10;99.90
48604;DHT22;32708;51.212;6.788;2023-04-24T12:17:56;11.10;99.90
48604;DHT22;32708;51.212;6.788;2023-04-24T12:20:29;10.90;99.90
48604;DHT22;32708;51.212;6.788;2023-04-24T12:22:59;11.10;99.90
48604;DHT22;32708;51.212;6.788;2023-04-24T12:25:28;11.50;99.90
48604;DHT22;32708;51.212;6.788;2023-04-24T12:30:34;11.90;99.90
48604;DHT22;32708;51.212;6.788;2023-04-24T12:33:04;12.00;99.90
48604;DHT22;32708;51.212;6.788;2023-04-24T12:35:32;12.30;99.90
48604;DHT22;32708;51.212;6.788;2023-04-24T12:38:07;12.40;99.90
48604;DHT22;32708;51.212;6.788;2023-04-24T12:40:34;12.70;99.90
48604;DHT22;32708;51.212;6.788;2023-04-24T12:43:00;12.50;99.90
48604;DHT22;32708;51.212;6.788;2023-04-24T12:45:26;12.70;99.90
48604;DHT22;32708;51.212;6.788;2023-04-24T12:47:53;12.50;95.10
48604;DHT22;32708;51.212;6.788;2023-04-24T12:50:20;12.60;94.60
48604;DHT22;32708;51.212;6.788;2023-04-24T12:52:46;12.70;93.00
48604;DHT22;32708;51.212;6.788;2023-04-24T12:55:12;12.80;85.40
48604;DHT22;32708;51.212;6.788;2023-04-24T12:57:40;12.90;80.80
48604;DHT22;32708;51.212;6.788;2023-04-24T13:00:07;12.50;77.70
48604;DHT22;32708;51.212;6.788;2023-04-24T13:02:34;12.20;75.50
48604;DHT22;32708;51.212;6.788;2023-04-24T13:05:01;11.90;58.00
48604;DHT22;32708;51.212;6.788;2023-04-24T13:07:29;12.10;54.70
48604;DHT22;32708;51.212;6.788;2023-04-24T13:09:56;12.20;67.90
48604;DHT22;32708;51.212;6.788;2023-04-24T13:12:25;12.20;64.60
48604;DHT22;32708;51.212;6.788;2023-04-24T13:14:52;12.30;63.50
48604;DHT22;32708;51.212;6.788;2023-04-24T13:17:19;12.30;62.50
48604;DHT22;32708;51.212;6.788;2023-04-24T13:19:45;12.60;57.10
48604;DHT22;32708;51.212;6.788;2023-04-24T13:22:12;12.60;57.80
48604;DHT22;32708;51.212;6.788;2023-04-24T13:24:39;12.60;52.30
48604;DHT22;32708;51.212;6.788;2023-04-24T13:27:07;12.50;35.50
48604;DHT22;32708;51.212;6.788;2023-04-24T13:29:34;12.20;30.70
48604;DHT22;32708;51.212;6.788;2023-04-24T13:32:00;12.20;40.60
48604;DHT22;32708;51.212;6.788;2023-04-24T13:34:27;12.30;36.70
48604;DHT22;32708;51.212;6.788;2023-04-24T13:36:55;12.40;22.60
48604;DHT22;32708;51.212;6.788;2023-04-24T13:39:23;12.60;26.50
48604;DHT22;32708;51.212;6.788;2023-04-24T13:41:50;12.40;28.90
48604;DHT22;32708;51.212;6.788;2023-04-24T13:44:19;12.40;30.50
48604;DHT22;32708;51.212;6.788;2023-04-24T13:46:48;12.10;37.30
48604;DHT22;32708;51.212;6.788;2023-04-24T13:49:16;12.10;52.60
48604;DHT22;32708;51.212;6.788;2023-04-24T13:51:42;12.30;26.10
48604;DHT22;32708;51.212;6.788;2023-04-24T13:54:09;12.30;37.00
48604;DHT22;32708;51.212;6.788;2023-04-24T13:56:35;12.20;34.30
48604;DHT22;32708;51.212;6.788;2023-04-24T13:59:02;12.30;46.00
48604;DHT22;32708;51.212;6.788;2023-04-24T14:01:28;12.30;53.10
48604;DHT22;32708;51.212;6.788;2023-04-24T14:03:55;12.30;45.50
48604;DHT22;32708;51.212;6.788;2023-04-24T14:06:23;12.20;50.10
48604;DHT22;32708;51.212;6.788;2023-04-24T14:08:50;12.00;44.90
48604;DHT22;32708;51.212;6.788;2023-04-24T14:11:17;12.00;48.60
48604;DHT22;32708;51.212;6.788;2023-04-24T14:13:44;11.80;59.30
48604;DHT22;32708;51.212;6.788;2023-04-24T14:16:12;11.70;58.00
48604;DHT22;32708;51.212;6.788;2023-04-24T14:18:40;11.70;67.30
48604;DHT22;32708;51.212;6.788;2023-04-24T14:21:06;11.90;55.30
48604;DHT22;32708;51.212;6.788;2023-04-24T14:23:33;12.00;42.50
48604;DHT22;32708;51.212;6.788;2023-04-24T14:26:00;12.10;35.00
48604;DHT22;32708;51.212;6.788;2023-04-24T14:28:27;12.20;28.20
48604;DHT22;32708;51.212;6.788;2023-04-24T14:30:53;12.10;20.00
48604;DHT22;32708;51.212;6.788;2023-04-24T14:33:20;12.10;23.00
48604;DHT22;32708;51.212;6.788;2023-04-24T14:35:47;12.20;9.70
48604;DHT22;32708;51.212;6.788;2023-04-24T14:38:13;12.10;18.40
48604;DHT22;32708;51.212;6.788;2023-04-24T14:40:40;12.10;25.70
48604;DHT22;32708;51.212;6.788;2023-04-24T14:43:06;12.60;29.80
48604;DHT22;32708;51.212;6.788;2023-04-24T14:45:32;12.30;12.60
48604;DHT22;32708;51.212;6.788;2023-04-24T14:47:59;12.20;23.30
48604;DHT22;32708;51.212;6.788;2023-04-24T14:50:25;12.10;14.00
48604;DHT22;32708;51.212;6.788;2023-04-24T14:52:54;12.40;1.00
48604;DHT22;32708;51.212;6.788;2023-04-24T14:55:25;12.30;1.00
48604;DHT22;32708;51.212;6.788;2023-04-24T14:57:52;12.50;1.00
48604;DHT22;32708;51.212;6.788;2023-04-24T15:00:19;12.60;1.00
48604;DHT22;32708;51.212;6.788;2023-04-24T15:02:46;12.60;1.00
48604;DHT22;32708;51.212;6.788;2023-04-24T15:05:12;12.50;1.00
48604;DHT22;32708;51.212;6.788;2023-04-24T15:07:38;12.50;1.00
48604;DHT22;32708;51.212;6.788;2023-04-24T15:10:07;12.60;1.00
48604;DHT22;32708;51.212;6.788;2023-04-24T15:12:34;12.60;1.00
48604;DHT22;32708;51.212;6.788;2023-04-24T15:15:00;12.70;1.00
48604;DHT22;32708;51.212;6.788;2023-04-24T15:17:29;12.90;1.00
48604;DHT22;32708;51.212;6.788;2023-04-24T15:19:56;12.70;1.00
48604;DHT22;32708;51.212;6.788;2023-04-24T15:22:22;12.60;1.00
48604;DHT22;32708;51.212;6.788;2023-04-24T15:24:49;12.70;1.00
48604;DHT22;32708;51.212;6.788;2023-04-24T15:27:15;12.60;1.00
48604;DHT22;32708;51.212;6.788;2023-04-24T15:29:41;12.60;1.00
48604;DHT22;32708;51.212;6.788;2023-04-24T15:32:08;12.80;1.00
48604;DHT22;32708;51.212;6.788;2023-04-24T15:34:34;12.80;1.00
48604;DHT22;32708;51.212;6.788;2023-04-24T15:37:00;12.70;1.00
48604;DHT22;32708;51.212;6.788;2023-04-24T15:39:29;12.50;1.00
48604;DHT22;32708;51.212;6.788;2023-04-24T15:41:56;12.70;1.00
48604;DHT22;32708;51.212;6.788;2023-04-24T15:44:22;12.60;1.00
48604;DHT22;32708;51.212;6.788;2023-04-24T15:46:49;12.50;1.00
48604;DHT22;32708;51.212;6.788;2023-04-24T15:49:17;12.60;1.00
48604;DHT22;32708;51.212;6.788;2023-04-24T15:51:44;12.70;1.00
48604;DHT22;32708;51.212;6.788;2023-04-24T15:54:10;12.70;1.00
48604;DHT22;32708;51.212;6.788;2023-04-24T15:56:36;12.80;1.00
48604;DHT22;32708;51.212;6.788;2023-04-24T15:59:03;12.70;1.00
48604;DHT22;32708;51.212;6.788;2023-04-24T16:01:29;12.90;1.00
48604;DHT22;32708;51.212;6.788;2023-04-24T16:03:56;12.90;1.00
48604;DHT22;32708;51.212;6.788;2023-04-24T16:06:22;12.90;1.00